Time;durP1;ratioP1;P1;durP2;ratioP2;P2;SDS_P1;SDS_P2;PMS_P1;PMS_P2;Temp;Humidity;BMP_temperature;BMP_pressure;BME280_temperature;BME280_humidity;BME280_pressure;Samples;Min_cycle;Max_cycle;Signal;HPM_P1;HPM_P2
2023/12/30 00:01:13;;;;;;;;;;;;;;;;;;5128581;27;20410;-67
2023/12/30 00:03:38;;;;;;;;;;;;;;;;;;5126430;28;19967;-67
2023/12/30 00:06:04;;;;;;;;;;;;;;;;;;5129944;27;19999;-67
2023/12/30 00:08:30;;;;;;;;;;;;;;;;;;5126696;28;20027;-67
2023/12/30 00:10:56;;;;;;;;;;;;;;;;;;5129835;28;20295;-68
2023/12/30 00:13:22;;;;;;;;;;;;;;;;;;5128889;27;19931;-66
2023/12/30 00:15:48;;;;;;;;;;;;;;;;;;5124966;27;19927;-67
2023/12/30 00:18:15;;;;;;;;;;;;;;;;;;5126063;27;20361;-67
2023/12/30 00:20:41;;;;;;;;;;;;;;;;;;5132645;27;19934;-68
2023/12/30 00:23:07;;;;;;;;;;;;;;;;;;5114029;27;19919;-68
2023/12/30 00:25:33;;;;;;;;;;;;;;;;;;5126189;27;19966;-67
2023/12/30 00:27:59;;;;;;;;;;;;;;;;;;5132343;27;19963;-67
2023/12/30 00:30:25;;;;;;;;;;;;;;;;;;5131793;27;19984;-67
2023/12/30 00:32:50;;;;;;;;;;;;;;;;;;5129805;27;19972;-68
2023/12/30 00:35:16;;;;;;;;;;;;;;;;;;5125847;27;19924;-68
2023/12/30 00:37:42;;;;;;;;;;;;;;;;;;5129724;27;19923;-67
2023/12/30 00:40:08;;;;;;;;;;;;;;;;;;5125880;27;19927;-67
2023/12/30 00:42:34;;;;;;;;;;;;;;;;;;5126119;27;19942;-67
2023/12/30 00:45:00;;;;;;;;;;;;;;;;;;5130786;27;19979;-67
2023/12/30 00:47:26;;;;;;;;;;;;;;;;;;5129535;27;19933;-66
2023/12/30 00:49:52;;;;;;;;;;;;;;;;;;5125654;27;19927;-68
2023/12/30 00:52:18;;;;;;;;;;;;;;;;;;5126369;27;19920;-67
2023/12/30 00:54:44;;;;;;;;;;;;;;;;;;5129256;27;19920;-68
2023/12/30 00:57:10;;;;;;;;;;;;;;;;;;5130774;27;20383;-68
2023/12/30 00:59:36;;;;;;;;;;;;;;;;;;5131725;27;19935;-67
2023/12/30 01:02:02;;;;;;;;;;;;;;;;;;5128655;27;19919;-67
2023/12/30 01:04:28;;;;;;;;;;;;;;;;;;5131391;27;19920;-67
2023/12/30 01:06:54;;;;;;;;;;;;;;;;;;5125223;27;20081;-67
2023/12/30 01:09:20;;;;;;;;;;;;;;;;;;5131723;27;19923;-67
2023/12/30 01:11:46;;;;;;;;;;;;;;;;;;5128202;27;19932;-67
2023/12/30 01:14:12;;;;;;;;;;;;;;;;;;5129335;27;19919;-67
2023/12/30 01:16:37;;;;;;;;;;;;;;;;;;5131098;27;19923;-67
2023/12/30 01:19:03;;;;;;;;;;;;;;;;;;5129877;27;19919;-68
2023/12/30 01:21:29;;;;;;;;;;;;;;;;;;5129661;27;20014;-68
2023/12/30 01:23:55;;;;;;;;;;;;;;;;;;5129055;27;20003;-67
2023/12/30 01:26:21;;;;;;;;;;;;;;;;;;5130594;27;19973;-67
2023/12/30 01:28:47;;;;;;;;;;;;;;;;;;5127844;27;20007;-68
2023/12/30 01:31:14;;;;;;;;;;;;;;;;;;5128289;27;20425;-68
2023/12/30 01:33:40;;;;;;;;;;;;;;;;;;5132571;27;19923;-67
2023/12/30 01:36:06;;;;;;;;;;;;;;;;;;5130363;27;19941;-67
2023/12/30 01:38:32;;;;;;;;;;;;;;;;;;5124254;27;20323;-68
2023/12/30 01:40:58;;;;;;;;;;;;;;;;;;5126617;27;19969;-66
2023/12/30 01:43:24;;;;;;;;;;;;;;;;;;5129380;27;19976;-67
2023/12/30 01:45:50;;;;;;;;;;;;;;;;;;5127577;27;19935;-67
2023/12/30 01:48:16;;;;;;;;;;;;;;;;;;5125989;27;19923;-67
2023/12/30 01:50:42;;;;;;;;;;;;;;;;;;5130132;27;19930;-68
2023/12/30 01:53:08;;;;;;;;;;;;;;;;;;5128094;27;19926;-66
2023/12/30 01:55:33;;;;;;;;;;;;;;;;;;5135389;22;19910;-70
2023/12/30 01:57:59;;;;;;;;;;;;;;;;;;5100076;28;20002;-71
2023/12/30 02:00:25;;;;;;;;;;;;;;;;;;5108048;28;19955;-71
2023/12/30 02:02:53;;;;;;;;;;;;;;;;;;5110752;28;20416;-71
2023/12/30 02:05:19;;;;;;;;;;;;;;;;;;5100632;28;19927;-70
2023/12/30 02:07:45;;;;;;;;;;;;;;;;;;5097014;28;19924;-69
2023/12/30 02:10:11;;;;;;;;;;;;;;;;;;5101491;28;20867;-70
2023/12/30 02:12:37;;;;;;;;;;;;;;;;;;5091080;28;19920;-70
2023/12/30 02:15:02;;;;;;;;;;;;;;;;;;5106960;28;19963;-70
2023/12/30 02:17:28;;;;;;;;;;;;;;;;;;5100524;28;20024;-70
2023/12/30 02:19:54;;;;;;;;;;;;;;;;;;5108023;28;20407;-70
2023/12/30 02:22:20;;;;;;;;;;;;;;;;;;5099636;28;20376;-70
2023/12/30 02:24:46;;;;;;;;;;;;;;;;;;5095459;28;20026;-71
2023/12/30 02:27:12;;;;;;;;;;;;;;;;;;5098886;28;19919;-69
2023/12/30 02:29:38;;;;;;;;;;;;;;;;;;5107397;28;20022;-70
2023/12/30 02:32:04;;;;;;;;;;;;;;;;;;5109581;27;19963;-70
2023/12/30 02:34:30;;;;;;;;;;;;;;;;;;5091207;28;19976;-71
2023/12/30 02:36:56;;;;;;;;;;;;;;;;;;5108076;28;20314;-70
2023/12/30 02:39:22;;;;;;;;;;;;;;;;;;5093894;28;20014;-70
2023/12/30 02:41:47;;;;;;;;;;;;;;;;;;5100413;28;19920;-70
2023/12/30 02:44:18;;;;;;;;;;;;;;;;;;5099111;28;19924;-70
2023/12/30 02:46:44;;;;;;;;;;;;;;;;;;5108870;28;19963;-71
2023/12/30 02:49:10;;;;;;;;;;;;;;;;;;5096035;28;19971;-71
2023/12/30 02:51:36;;;;;;;;;;;;;;;;;;5098920;28;19967;-70
2023/12/30 02:54:02;;;;;;;;;;;;;;;;;;5091319;28;20393;-70
2023/12/30 02:56:28;;;;;;;;;;;;;;;;;;5107210;28;20014;-69
2023/12/30 02:58:56;;;;;;;;;;;;;;;;;;5103345;28;20040;-70
2023/12/30 03:01:21;;;;;;;;;;;;;;;;;;5084480;28;20432;-70
2023/12/30 03:03:47;;;;;;;;;;;;;;;;;;5103729;28;20006;-71
2023/12/30 03:06:14;;;;;;;;;;;;;;;;;;5099332;28;19923;-70
2023/12/30 03:08:40;;;;;;;;;;;;;;;;;;5089239;28;19970;-70
2023/12/30 03:11:06;;;;;;;;;;;;;;;;;;5103651;28;20330;-71
2023/12/30 03:13:32;;;;;;;;;;;;;;;;;;5094995;28;19947;-71
2023/12/30 03:15:58;;;;;;;;;;;;;;;;;;5089675;28;20539;-69
2023/12/30 03:18:24;;;;;;;;;;;;;;;;;;5092327;28;19927;-70
2023/12/30 03:20:50;;;;;;;;;;;;;;;;;;5106923;28;19966;-71
2023/12/30 03:23:16;;;;;;;;;;;;;;;;;;5102200;28;20311;-71
2023/12/30 03:25:41;;;;;;;;;;;;;;;;;;5099574;28;19935;-70
2023/12/30 03:28:07;;;;;;;;;;;;;;;;;;5102643;28;19927;-70
2023/12/30 03:30:33;;;;;;;;;;;;;;;;;;5102809;28;19934;-71
2023/12/30 03:32:59;;;;;;;;;;;;;;;;;;5107852;28;19987;-70
2023/12/30 03:35:25;;;;;;;;;;;;;;;;;;5103131;28;20692;-71
2023/12/30 03:37:51;;;;;;;;;;;;;;;;;;5107715;28;20022;-70
2023/12/30 03:40:17;;;;;;;;;;;;;;;;;;5108488;28;20014;-71
2023/12/30 03:42:43;;;;;;;;;;;;;;;;;;5105137;28;20002;-70
2023/12/30 03:45:09;;;;;;;;;;;;;;;;;;5101668;28;20022;-70
2023/12/30 03:47:35;;;;;;;;;;;;;;;;;;5107435;28;19948;-70
2023/12/30 03:50:01;;;;;;;;;;;;;;;;;;5103319;28;19928;-70
2023/12/30 03:52:27;;;;;;;;;;;;;;;;;;5107636;28;20061;-70
2023/12/30 03:54:55;;;;;;;;;;;;;;;;;;5105645;28;20409;-71
2023/12/30 03:57:21;;;;;;;;;;;;;;;;;;5108834;28;20007;-71
2023/12/30 03:59:47;;;;;;;;;;;;;;;;;;5111747;28;20080;-71
2023/12/30 04:02:13;;;;;;;;;;;;;;;;;;5105909;28;20384;-71
2023/12/30 04:04:39;;;;;;;;;;;;;;;;;;5093710;28;19930;-70
2023/12/30 04:07:05;;;;;;;;;;;;;;;;;;5107486;28;20596;-70
2023/12/30 04:09:31;;;;;;;;;;;;;;;;;;5107366;28;19920;-70
2023/12/30 04:11:57;;;;;;;;;;;;;;;;;;5108638;28;19938;-71
2023/12/30 04:14:22;;;;;;;;;;;;;;;;;;5104860;28;19992;-71
2023/12/30 04:16:48;;;;;;;;;;;;;;;;;;5103414;28;19923;-71
2023/12/30 04:19:14;;;;;;;;;;;;;;;;;;5105880;28;20357;-70
2023/12/30 04:21:40;;;;;;;;;;;;;;;;;;5118042;27;20003;-70
2023/12/30 04:24:06;;;;;;;;;;;;;;;;;;5109791;28;19920;-70
2023/12/30 04:26:32;;;;;;;;;;;;;;;;;;5098358;28;19923;-69
2023/12/30 04:28:58;;;;;;;;;;;;;;;;;;5086192;28;19927;-70
2023/12/30 04:31:24;;;;;;;;;;;;;;;;;;5094259;28;19931;-71
2023/12/30 04:33:50;;;;;;;;;;;;;;;;;;5091110;28;20014;-70
2023/12/30 04:36:16;;;;;;;;;;;;;;;;;;5113981;28;19924;-70
2023/12/30 04:38:42;;;;;;;;;;;;;;;;;;5097798;28;19927;-70
2023/12/30 04:41:08;;;;;;;;;;;;;;;;;;5113176;28;20280;-70
2023/12/30 04:43:34;;;;;;;;;;;;;;;;;;5100663;28;19924;-70
2023/12/30 04:46:00;;;;;;;;;;;;;;;;;;5105868;28;20365;-70
2023/12/30 04:48:26;;;;;;;;;;;;;;;;;;5111087;28;19926;-70
2023/12/30 04:50:51;;;;;;;;;;;;;;;;;;5108560;28;20261;-70
2023/12/30 04:53:17;;;;;;;;;;;;;;;;;;5113505;28;19931;-71
2023/12/30 04:55:43;;;;;;;;;;;;;;;;;;5102033;28;19931;-69
2023/12/30 04:58:09;;;;;;;;;;;;;;;;;;5091288;28;19924;-70
2023/12/30 05:00:35;;;;;;;;;;;;;;;;;;5098979;28;19972;-70
2023/12/30 05:03:01;;;;;;;;;;;;;;;;;;5110357;28;20365;-70
2023/12/30 05:05:27;;;;;;;;;;;;;;;;;;5102844;28;20062;-70
2023/12/30 05:07:53;;;;;;;;;;;;;;;;;;5097605;28;20007;-70
2023/12/30 05:10:19;;;;;;;;;;;;;;;;;;5112856;28;19924;-71
2023/12/30 05:12:45;;;;;;;;;;;;;;;;;;5102936;28;19924;-69
2023/12/30 05:15:14;;;;;;;;;;;;;;;;;;5089226;28;20014;-70
2023/12/30 05:17:40;;;;;;;;;;;;;;;;;;5107023;28;19988;-70
2023/12/30 05:20:07;;;;;;;;;;;;;;;;;;5107561;28;20660;-70
2023/12/30 05:22:33;;;;;;;;;;;;;;;;;;5106305;28;19920;-70
2023/12/30 05:24:59;;;;;;;;;;;;;;;;;;5102699;28;19920;-70
2023/12/30 05:27:25;;;;;;;;;;;;;;;;;;5108192;28;20277;-69
2023/12/30 05:29:51;;;;;;;;;;;;;;;;;;5105438;28;20357;-70
2023/12/30 05:32:17;;;;;;;;;;;;;;;;;;5104073;28;19935;-70
2023/12/30 05:34:43;;;;;;;;;;;;;;;;;;5111207;28;19927;-70
2023/12/30 05:37:10;;;;;;;;;;;;;;;;;;5106965;28;19924;-68
2023/12/30 05:39:36;;;;;;;;;;;;;;;;;;5109144;28;19955;-67
2023/12/30 05:42:02;;;;;;;;;;;;;;;;;;5106577;28;19962;-68
2023/12/30 05:44:28;;;;;;;;;;;;;;;;;;5109045;28;20599;-68
2023/12/30 05:46:54;;;;;;;;;;;;;;;;;;5106372;28;20051;-67
2023/12/30 05:49:20;;;;;;;;;;;;;;;;;;5089032;28;20023;-67
2023/12/30 05:51:46;;;;;;;;;;;;;;;;;;5105417;28;20019;-67
2023/12/30 05:54:12;;;;;;;;;;;;;;;;;;5108466;28;19924;-68
2023/12/30 05:56:38;;;;;;;;;;;;;;;;;;5103840;28;19980;-68
2023/12/30 05:59:04;;;;;;;;;;;;;;;;;;5109374;28;20692;-68
2023/12/30 06:01:29;;;;;;;;;;;;;;;;;;5100922;28;19924;-68
2023/12/30 06:03:55;;;;;;;;;;;;;;;;;;5101888;28;20280;-67
2023/12/30 06:06:21;;;;;;;;;;;;;;;;;;5083972;28;19926;-68
2023/12/30 06:08:47;;;;;;;;;;;;;;;;;;5097180;28;19962;-68
2023/12/30 06:11:13;;;;;;;;;;;;;;;;;;5111252;28;20031;-67
2023/12/30 06:13:41;;;;;;;;;;;;;;;;;;5098525;28;19919;-69
2023/12/30 06:16:08;;;;;;;;;;;;;;;;;;5096137;28;20626;-68
2023/12/30 06:18:34;;;;;;;;;;;;;;;;;;5095833;28;20596;-68
2023/12/30 06:21:00;;;;;;;;;;;;;;;;;;5099916;28;20006;-67
2023/12/30 06:23:28;;;;;;;;;;;;;;;;;;5096123;28;19920;-68
2023/12/30 06:25:54;;;;;;;;;;;;;;;;;;5089096;28;19928;-68
2023/12/30 06:28:20;;;;;;;;;;;;;;;;;;5104101;28;20354;-67
2023/12/30 06:30:46;;;;;;;;;;;;;;;;;;5110987;28;19953;-69
2023/12/30 06:33:12;;;;;;;;;;;;;;;;;;5102450;28;20001;-68
2023/12/30 06:35:38;;;;;;;;;;;;;;;;;;5107041;28;20498;-68
2023/12/30 06:38:04;;;;;;;;;;;;;;;;;;5095174;28;19924;-67
2023/12/30 06:40:30;;;;;;;;;;;;;;;;;;5081035;28;19973;-68
2023/12/30 06:42:56;;;;;;;;;;;;;;;;;;5111613;28;19923;-67
2023/12/30 06:45:22;;;;;;;;;;;;;;;;;;5111963;28;19919;-68
2023/12/30 06:47:48;;;;;;;;;;;;;;;;;;5107508;28;20303;-68
2023/12/30 06:50:15;;;;;;;;;;;;;;;;;;5110186;28;19932;-67
2023/12/30 06:52:42;;;;;;;;;;;;;;;;;;5094157;28;20422;-67
2023/12/30 06:55:11;;;;;;;;;;;;;;;;;;5102351;28;20001;-67
2023/12/30 06:57:37;;;;;;;;;;;;;;;;;;5098285;28;19924;-67
2023/12/30 07:00:03;;;;;;;;;;;;;;;;;;5106568;28;19928;-68
2023/12/30 07:02:29;;;;;;;;;;;;;;;;;;5106905;28;19920;-67
2023/12/30 07:04:55;;;;;;;;;;;;;;;;;;5103827;28;19928;-68
2023/12/30 07:07:21;;;;;;;;;;;;;;;;;;5104943;28;19930;-67
2023/12/30 07:09:47;;;;;;;;;;;;;;;;;;5100529;28;20422;-67
2023/12/30 07:12:13;;;;;;;;;;;;;;;;;;5108744;28;19927;-67
2023/12/30 07:14:39;;;;;;;;;;;;;;;;;;5103050;28;19927;-67
2023/12/30 07:17:05;;;;;;;;;;;;;;;;;;5106340;28;20395;-66
2023/12/30 07:19:31;;;;;;;;;;;;;;;;;;5105125;28;19924;-67
2023/12/30 07:21:57;;;;;;;;;;;;;;;;;;5106333;28;19927;-68
2023/12/30 07:24:23;;;;;;;;;;;;;;;;;;5102354;28;19920;-67
2023/12/30 07:26:49;;;;;;;;;;;;;;;;;;5108102;28;19920;-67
2023/12/30 07:29:14;;;;;;;;;;;;;;;;;;5099259;28;20394;-67
2023/12/30 07:31:40;;;;;;;;;;;;;;;;;;5105279;28;19927;-67
2023/12/30 07:34:06;;;;;;;;;;;;;;;;;;5108940;28;19920;-68
2023/12/30 07:36:32;;;;;;;;;;;;;;;;;;5107344;28;20007;-68
2023/12/30 07:38:58;;;;;;;;;;;;;;;;;;5110102;28;20145;-67
2023/12/30 07:41:24;;;;;;;;;;;;;;;;;;5110871;28;19931;-68
2023/12/30 07:43:50;;;;;;;;;;;;;;;;;;5102123;28;19920;-67
2023/12/30 07:46:16;;;;;;;;;;;;;;;;;;5110723;28;19924;-68
2023/12/30 07:48:42;;;;;;;;;;;;;;;;;;5104468;28;19928;-68
2023/12/30 07:51:08;;;;;;;;;;;;;;;;;;5108037;28;19972;-69
2023/12/30 07:53:34;;;;;;;;;;;;;;;;;;5106448;28;19928;-68
2023/12/30 07:56:00;;;;;;;;;;;;;;;;;;5108104;22;19932;-67
2023/12/30 07:58:26;;;;;;;;;;;;;;;;;;5084709;28;19981;-68
2023/12/30 08:00:52;;;;;;;;;;;;;;;;;;5094810;28;19962;-68
2023/12/30 08:03:17;;;;;;;;;;;;;;;;;;5106373;28;20342;-68
2023/12/30 08:05:43;;;;;;;;;;;;;;;;;;5104329;28;19927;-68
2023/12/30 08:08:12;;;;;;;;;;;;;;;;;;5098127;28;19924;-68
2023/12/30 08:10:38;;;;;;;;;;;;;;;;;;5107070;28;19962;-68
2023/12/30 08:13:04;;;;;;;;;;;;;;;;;;5105090;28;19927;-65
2023/12/30 08:15:29;;;;;;;;;;;;;;;;;;5106315;28;20010;-66
2023/12/30 08:17:55;;;;;;;;;;;;;;;;;;5108857;28;20002;-66
2023/12/30 08:20:21;;;;;;;;;;;;;;;;;;5106834;28;20014;-66
2023/12/30 08:22:50;;;;;;;;;;;;;;;;;;5097397;28;19959;-66
2023/12/30 08:25:16;;;;;;;;;;;;;;;;;;5106674;28;20352;-67
2023/12/30 08:27:42;;;;;;;;;;;;;;;;;;5104525;28;19928;-66
2023/12/30 08:30:07;;;;;;;;;;;;;;;;;;5106535;28;19931;-66
2023/12/30 08:32:33;;;;;;;;;;;;;;;;;;5108793;28;19930;-67
2023/12/30 08:35:02;;;;;;;;;;;;;;;;;;5113476;28;20010;-67
2023/12/30 08:37:28;;;;;;;;;;;;;;;;;;5105209;28;19924;-66
2023/12/30 08:39:54;;;;;;;;;;;;;;;;;;5106686;27;19977;-66
2023/12/30 08:42:21;;;;;;;;;;;;;;;;;;5104759;28;19919;-65
2023/12/30 08:44:47;;;;;;;;;;;;;;;;;;5111920;27;19924;-67
2023/12/30 08:47:15;;;;;;;;;;;;;;;;;;5103641;28;19985;-66
2023/12/30 08:49:41;;;;;;;;;;;;;;;;;;5111383;27;19972;-66
2023/12/30 08:52:07;;;;;;;;;;;;;;;;;;5112332;27;19975;-66
2023/12/30 08:54:33;;;;;;;;;;;;;;;;;;5108423;27;20400;-67
2023/12/30 08:56:59;;;;;;;;;;;;;;;;;;5112394;28;20019;-66
2023/12/30 08:59:24;;;;;;;;;;;;;;;;;;5113166;28;19924;-67
2023/12/30 09:01:51;;;;;;;;;;;;;;;;;;5106285;27;19919;-67
2023/12/30 09:04:16;;;;;;;;;;;;;;;;;;5108768;27;19927;-67
2023/12/30 09:06:43;;;;;;;;;;;;;;;;;;5096246;28;19924;-66
2023/12/30 09:09:08;;;;;;;;;;;;;;;;;;5112063;28;20422;-66
2023/12/30 09:11:37;;;;;;;;;;;;;;;;;;5103531;28;19920;-66
2023/12/30 09:14:03;;;;;;;;;;;;;;;;;;5108764;28;19999;-66
2023/12/30 09:16:29;;;;;;;;;;;;;;;;;;5113537;28;20377;-67
2023/12/30 09:18:55;;;;;;;;;;;;;;;;;;5113655;28;20030;-66
2023/12/30 09:21:21;;;;;;;;;;;;;;;;;;5106240;28;20011;-67
2023/12/30 09:23:47;;;;;;;;;;;;;;;;;;5098677;28;20000;-67
2023/12/30 09:26:15;;;;;;;;;;;;;;;;;;5108998;28;19942;-67
2023/12/30 09:28:41;;;;;;;;;;;;;;;;;;5113727;28;19928;-67
2023/12/30 09:31:07;;;;;;;;;;;;;;;;;;5112936;28;20003;-66
2023/12/30 09:33:33;;;;;;;;;;;;;;;;;;5113737;28;20033;-66
2023/12/30 09:35:58;;;;;;;;;;;;;;;;;;5101756;28;20052;-66
2023/12/30 09:38:24;;;;;;;;;;;;;;;;;;5113400;28;20007;-65
2023/12/30 09:40:50;;;;;;;;;;;;;;;;;;5109800;28;20606;-65
2023/12/30 09:43:16;;;;;;;;;;;;;;;;;;5105354;28;20347;-65
2023/12/30 09:45:42;;;;;;;;;;;;;;;;;;5111459;28;19974;-65
2023/12/30 09:48:08;;;;;;;;;;;;;;;;;;5112947;28;19982;-65
2023/12/30 09:50:34;;;;;;;;;;;;;;;;;;5075414;28;20375;-65
2023/12/30 09:53:00;;;;;;;;;;;;;;;;;;5111988;28;20014;-65
2023/12/30 09:55:26;;;;;;;;;;;;;;;;;;5099236;28;19999;-66
2023/12/30 09:57:52;;;;;;;;;;;;;;;;;;5106834;28;20002;-65
2023/12/30 10:00:18;;;;;;;;;;;;;;;;;;5096362;28;20189;-65
2023/12/30 10:02:43;;;;;;;;;;;;;;;;;;5109086;28;20436;-65
2023/12/30 10:05:11;;;;;;;;;;;;;;;;;;5104859;28;20090;-65
2023/12/30 10:07:37;;;;;;;;;;;;;;;;;;5111676;28;19919;-65
2023/12/30 10:10:02;;;;;;;;;;;;;;;;;;5110579;28;19920;-66
2023/12/30 10:12:28;;;;;;;;;;;;;;;;;;5097667;28;19927;-66
2023/12/30 10:14:54;;;;;;;;;;;;;;;;;;5107193;28;20010;-66
2023/12/30 10:17:20;;;;;;;;;;;;;;;;;;5109688;28;20014;-66
2023/12/30 10:19:46;;;;;;;;;;;;;;;;;;5112395;28;19973;-66
2023/12/30 10:22:12;;;;;;;;;;;;;;;;;;5097368;28;20650;-66
2023/12/30 10:24:38;;;;;;;;;;;;;;;;;;5110673;28;20064;-66
2023/12/30 10:27:04;;;;;;;;;;;;;;;;;;5109143;28;19955;-66
2023/12/30 10:29:30;;;;;;;;;;;;;;;;;;5111778;28;20293;-68
2023/12/30 10:31:56;;;;;;;;;;;;;;;;;;5106242;28;20031;-69
2023/12/30 10:34:22;;;;;;;;;;;;;;;;;;5107442;28;20365;-69
2023/12/30 10:36:48;;;;;;;;;;;;;;;;;;5100292;28;19919;-69
2023/12/30 10:39:16;;;;;;;;;;;;;;;;;;5098249;28;19960;-69
2023/12/30 10:41:42;;;;;;;;;;;;;;;;;;5101419;28;20620;-69
2023/12/30 10:44:08;;;;;;;;;;;;;;;;;;5100083;28;19923;-69
2023/12/30 10:46:34;;;;;;;;;;;;;;;;;;5099047;28;19972;-71
2023/12/30 10:49:03;;;;;;;;;;;;;;;;;;5101967;28;20491;-69
2023/12/30 10:51:29;;;;;;;;;;;;;;;;;;5085190;28;19926;-70
2023/12/30 10:53:55;;;;;;;;;;;;;;;;;;5110165;28;20003;-69
2023/12/30 10:56:21;;;;;;;;;;;;;;;;;;5093483;28;19931;-69
2023/12/30 10:58:47;;;;;;;;;;;;;;;;;;5100576;28;20459;-70
2023/12/30 11:01:13;;;;;;;;;;;;;;;;;;5096716;28;19928;-69
2023/12/30 11:03:40;;;;;;;;;;;;;;;;;;5085932;28;20307;-69
2023/12/30 11:06:07;;;;;;;;;;;;;;;;;;5101549;28;19924;-69
2023/12/30 11:08:33;;;;;;;;;;;;;;;;;;5101980;28;19923;-69
2023/12/30 11:10:59;;;;;;;;;;;;;;;;;;5101688;28;20018;-69
2023/12/30 11:13:25;;;;;;;;;;;;;;;;;;5099848;28;19931;-68
2023/12/30 11:15:51;;;;;;;;;;;;;;;;;;5081940;28;19926;-70
2023/12/30 11:18:17;;;;;;;;;;;;;;;;;;5093773;28;19943;-70
2023/12/30 11:20:43;;;;;;;;;;;;;;;;;;5104396;28;20010;-70
2023/12/30 11:23:10;;;;;;;;;;;;;;;;;;5098009;28;20665;-70
2023/12/30 11:25:36;;;;;;;;;;;;;;;;;;5102275;28;20303;-71
2023/12/30 11:28:02;;;;;;;;;;;;;;;;;;5092499;28;19930;-70
2023/12/30 11:30:28;;;;;;;;;;;;;;;;;;5084616;28;19920;-70
2023/12/30 11:32:57;;;;;;;;;;;;;;;;;;5093078;28;20403;-68
2023/12/30 11:35:23;;;;;;;;;;;;;;;;;;5099041;28;19920;-68
2023/12/30 11:37:49;;;;;;;;;;;;;;;;;;5102153;28;20268;-69
2023/12/30 11:40:15;;;;;;;;;;;;;;;;;;5098106;28;20365;-68
2023/12/30 11:42:41;;;;;;;;;;;;;;;;;;5110193;28;19931;-69
2023/12/30 11:45:06;;;;;;;;;;;;;;;;;;5106886;28;19926;-70
2023/12/30 11:47:32;;;;;;;;;;;;;;;;;;5107006;28;20392;-70
2023/12/30 11:49:58;;;;;;;;;;;;;;;;;;5108404;28;20602;-70
2023/12/30 11:52:24;;;;;;;;;;;;;;;;;;5106041;28;20018;-70
2023/12/30 11:54:50;;;;;;;;;;;;;;;;;;5098745;28;19919;-70
2023/12/30 11:57:16;;;;;;;;;;;;;;;;;;5105292;28;19971;-70
2023/12/30 11:59:42;;;;;;;;;;;;;;;;;;5104800;28;20365;-70
2023/12/30 12:02:08;;;;;;;;;;;;;;;;;;5096325;28;20435;-69
2023/12/30 12:04:35;;;;;;;;;;;;;;;;;;5100930;28;19959;-67
2023/12/30 12:07:01;;;;;;;;;;;;;;;;;;5103859;28;20008;-68
2023/12/30 12:09:27;;;;;;;;;;;;;;;;;;5105770;28;19985;-68
2023/12/30 12:11:53;;;;;;;;;;;;;;;;;;5110308;28;19927;-68
2023/12/30 12:14:19;;;;;;;;;;;;;;;;;;5105403;28;19924;-68
2023/12/30 12:16:45;;;;;;;;;;;;;;;;;;5108639;28;19965;-68
2023/12/30 12:19:10;;;;;;;;;;;;;;;;;;5106828;28;19919;-69
2023/12/30 12:21:36;;;;;;;;;;;;;;;;;;5107199;28;19923;-69
2023/12/30 12:24:03;;;;;;;;;;;;;;;;;;5102530;28;20422;-69
2023/12/30 12:26:31;;;;;;;;;;;;;;;;;;5108409;28;19926;-67
2023/12/30 12:28:58;;;;;;;;;;;;;;;;;;5107235;28;19928;-68
2023/12/30 12:31:23;;;;;;;;;;;;;;;;;;5111003;28;19934;-68
2023/12/30 12:33:51;;;;;;;;;;;;;;;;;;5106927;28;20369;-68
2023/12/30 12:36:19;;;;;;;;;;;;;;;;;;5110950;28;19928;-68
2023/12/30 12:38:45;;;;;;;;;;;;;;;;;;5111464;28;19938;-69
2023/12/30 12:41:11;;;;;;;;;;;;;;;;;;5107463;28;19920;-69
2023/12/30 12:43:37;;;;;;;;;;;;;;;;;;5106811;28;19927;-69
2023/12/30 12:46:03;;;;;;;;;;;;;;;;;;5104185;28;19965;-69
2023/12/30 12:48:29;;;;;;;;;;;;;;;;;;5101194;28;19953;-68
2023/12/30 12:50:55;;;;;;;;;;;;;;;;;;5111061;28;19923;-69
2023/12/30 12:53:21;;;;;;;;;;;;;;;;;;5110561;28;19977;-68
2023/12/30 12:55:47;;;;;;;;;;;;;;;;;;5101009;28;20370;-68
2023/12/30 12:58:13;;;;;;;;;;;;;;;;;;5107552;28;19927;-68
2023/12/30 13:00:39;;;;;;;;;;;;;;;;;;5107374;28;19927;-68
2023/12/30 13:03:05;;;;;;;;;;;;;;;;;;5104271;28;19930;-69
2023/12/30 13:05:31;;;;;;;;;;;;;;;;;;5104609;28;19924;-69
2023/12/30 13:07:57;;;;;;;;;;;;;;;;;;5108792;28;19944;-70
2023/12/30 13:12:58;;;;;;;;;;;;;;;;;;5103992;28;19931;-69
2023/12/30 13:15:24;;;;;;;;;;;;;;;;;;5109655;28;19924;-69
2023/12/30 13:17:51;;;;;;;;;;;;;;;;;;5109577;28;19919;-70
2023/12/30 13:20:17;;;;;;;;;;;;;;;;;;5109886;28;19928;-69
2023/12/30 13:22:43;;;;;;;;;;;;;;;;;;5109867;28;19938;-69
2023/12/30 13:25:09;;;;;;;;;;;;;;;;;;5105978;28;19920;-68
2023/12/30 13:27:35;;;;;;;;;;;;;;;;;;5109641;28;20352;-69
2023/12/30 13:30:02;;;;;;;;;;;;;;;;;;5104975;28;19927;-69
2023/12/30 13:32:28;;;;;;;;;;;;;;;;;;5092796;28;19951;-69
2023/12/30 13:34:56;;;;;;;;;;;;;;;;;;5103899;28;20302;-69
2023/12/30 13:37:24;;;;;;;;;;;;;;;;;;5112615;28;19930;-69
2023/12/30 13:39:51;;;;;;;;;;;;;;;;;;5108756;28;19926;-69
2023/12/30 13:42:17;;;;;;;;;;;;;;;;;;5100995;28;20015;-69
2023/12/30 13:44:45;;;;;;;;;;;;;;;;;;5105021;28;20006;-69
2023/12/30 13:52:42;;;;;;;;;;;;;;;;;;5111000;28;19920;-69
2023/12/30 13:55:17;;;;;;;;;;;;;;;;;;5110966;28;20365;-69
2023/12/30 13:57:44;;;;;;;;;;;;;;;;;;5098113;28;19927;-69
2023/12/30 14:00:13;;;;;;;;;;;;;;;;;;5108985;28;19927;-68
2023/12/30 14:02:40;;;;;;;;;;;;;;;;;;5103874;28;19969;-69
2023/12/30 14:05:09;;;;;;;;;;;;;;;;;;5099881;28;19919;-69
2023/12/30 14:07:36;;;;;;;;;;;;;;;;;;5112793;27;19920;-68
2023/12/30 14:10:06;;;;;;;;;;;;;;;;;;5108795;28;20490;-69
2023/12/30 14:12:32;;;;;;;;;;;;;;;;;;5109934;28;19926;-69
2023/12/30 14:15:05;;;;;;;;;;;;;;;;;;5112553;28;19924;-69
2023/12/30 14:17:33;;;;;;;;;;;;;;;;;;5092105;28;20011;-69
2023/12/30 14:20:04;;;;;;;;;;;;;;;;;;5108225;28;19920;-69
2023/12/30 14:22:30;;;;;;;;;;;;;;;;;;5112509;28;20003;-69
2023/12/30 14:24:56;;;;;;;;;;;;;;;;;;5103135;28;20007;-69
2023/12/30 14:27:22;;;;;;;;;;;;;;;;;;5097599;28;19932;-69
2023/12/30 14:29:51;;;;;;;;;;;;;;;;;;5109427;28;19942;-69
2023/12/30 14:32:17;;;;;;;;;;;;;;;;;;5112209;28;20285;-69
2023/12/30 14:34:43;;;;;;;;;;;;;;;;;;5112146;28;19923;-69
2023/12/30 14:37:09;;;;;;;;;;;;;;;;;;5112332;28;19955;-69
2023/12/30 14:39:35;;;;;;;;;;;;;;;;;;5112174;28;19982;-69
2023/12/30 14:42:01;;;;;;;;;;;;;;;;;;5107945;28;19962;-69
2023/12/30 14:44:27;;;;;;;;;;;;;;;;;;5109365;28;19924;-69
2023/12/30 14:46:53;;;;;;;;;;;;;;;;;;5111932;28;20408;-69
2023/12/30 14:49:19;;;;;;;;;;;;;;;;;;5104217;28;20010;-68
2023/12/30 14:51:45;;;;;;;;;;;;;;;;;;5106130;28;19924;-69
2023/12/30 14:54:11;;;;;;;;;;;;;;;;;;5108466;28;20010;-69
2023/12/30 14:56:37;;;;;;;;;;;;;;;;;;5098248;28;19924;-69
2023/12/30 14:59:03;;;;;;;;;;;;;;;;;;5105449;28;20610;-68
2023/12/30 15:01:29;;;;;;;;;;;;;;;;;;5102745;28;19924;-68
2023/12/30 15:03:58;;;;;;;;;;;;;;;;;;5099634;28;19923;-68
2023/12/30 15:06:26;;;;;;;;;;;;;;;;;;5095560;28;19928;-68
2023/12/30 15:08:52;;;;;;;;;;;;;;;;;;5107976;28;19928;-68
2023/12/30 15:11:18;;;;;;;;;;;;;;;;;;5100732;28;19989;-68
2023/12/30 15:13:44;;;;;;;;;;;;;;;;;;5107506;28;20379;-69
2023/12/30 15:16:10;;;;;;;;;;;;;;;;;;5104822;28;19946;-68
2023/12/30 15:18:36;;;;;;;;;;;;;;;;;;5108876;28;19926;-69
2023/12/30 15:21:02;;;;;;;;;;;;;;;;;;5095961;28;20475;-69
2023/12/30 15:23:28;;;;;;;;;;;;;;;;;;5107822;28;19923;-69
2023/12/30 15:25:54;;;;;;;;;;;;;;;;;;5101082;28;20023;-69
2023/12/30 15:28:20;;;;;;;;;;;;;;;;;;5098017;28;20006;-69
2023/12/30 15:30:45;;;;;;;;;;;;;;;;;;5093991;28;19931;-69
2023/12/30 15:33:11;;;;;;;;;;;;;;;;;;5097816;28;20327;-69
2023/12/30 15:35:39;;;;;;;;;;;;;;;;;;5098306;28;20413;-69
2023/12/30 15:38:05;;;;;;;;;;;;;;;;;;5100150;28;20073;-69
2023/12/30 15:40:32;;;;;;;;;;;;;;;;;;5094886;28;20010;-69
2023/12/30 15:42:58;;;;;;;;;;;;;;;;;;5105805;28;20277;-66
2023/12/30 15:45:24;;;;;;;;;;;;;;;;;;5107227;27;19923;-68
2023/12/30 15:47:50;;;;;;;;;;;;;;;;;;5108808;27;20016;-68
2023/12/30 15:50:16;;;;;;;;;;;;;;;;;;5103769;28;19924;-68
2023/12/30 15:52:42;;;;;;;;;;;;;;;;;;5105945;28;19927;-68
2023/12/30 15:55:08;;;;;;;;;;;;;;;;;;5114902;27;19964;-68
2023/12/30 15:57:34;;;;;;;;;;;;;;;;;;5107639;27;20383;-67
2023/12/30 16:00:00;;;;;;;;;;;;;;;;;;5105732;27;19988;-68
2023/12/30 16:02:26;;;;;;;;;;;;;;;;;;5097849;27;20361;-68
2023/12/30 16:04:52;;;;;;;;;;;;;;;;;;5107197;28;19963;-68
2023/12/30 16:07:18;;;;;;;;;;;;;;;;;;5110801;27;20569;-68
2023/12/30 16:09:44;;;;;;;;;;;;;;;;;;5105957;28;19939;-68
2023/12/30 16:12:10;;;;;;;;;;;;;;;;;;5107289;28;19927;-68
2023/12/30 16:14:37;;;;;;;;;;;;;;;;;;5103392;28;19970;-68
2023/12/30 16:17:03;;;;;;;;;;;;;;;;;;5108280;28;19927;-68
2023/12/30 16:19:29;;;;;;;;;;;;;;;;;;5108858;28;19924;-68
2023/12/30 16:21:55;;;;;;;;;;;;;;;;;;5105401;28;19927;-68
2023/12/30 16:24:21;;;;;;;;;;;;;;;;;;5079976;28;20807;-67
2023/12/30 16:26:47;;;;;;;;;;;;;;;;;;5111155;28;19923;-68
2023/12/30 16:29:13;;;;;;;;;;;;;;;;;;5099518;28;19928;-68
2023/12/30 16:31:39;;;;;;;;;;;;;;;;;;5098877;27;20667;-68
2023/12/30 16:34:05;;;;;;;;;;;;;;;;;;5091383;28;19981;-68
2023/12/30 16:36:33;;;;;;;;;;;;;;;;;;5102938;28;19977;-68
2023/12/30 16:38:59;;;;;;;;;;;;;;;;;;5090993;28;19920;-69
2023/12/30 16:41:25;;;;;;;;;;;;;;;;;;5108813;28;19965;-69
2023/12/30 16:43:51;;;;;;;;;;;;;;;;;;5078636;28;19924;-68
2023/12/30 16:46:18;;;;;;;;;;;;;;;;;;5108169;28;20402;-68